createdAt,value
2023-03-05T00:00:04.061Z,1003.52
2023-03-05T00:00:33.389Z,1003.52
2023-03-05T00:01:05.019Z,1003.83
2023-03-05T00:01:37.903Z,1003.83
2023-03-05T00:02:09.160Z,1003.62
2023-03-05T00:02:35.391Z,1003.72
2023-03-05T00:02:57.016Z,1003.72
2023-03-05T00:03:29.054Z,1003.72
2023-03-05T00:04:01.065Z,1003.72
2023-03-05T00:04:33.317Z,1003.72
2023-03-05T00:05:05.354Z,1003.83
2023-03-05T00:05:37.044Z,1003.83
2023-03-05T00:06:09.005Z,1003.62
2023-03-05T00:06:35.319Z,1003.62
2023-03-05T00:06:57.061Z,1003.62
2023-03-05T00:07:29.004Z,1003.62
2023-03-05T00:08:01.889Z,1003.72
2023-03-05T00:08:33.376Z,1003.72
2023-03-05T00:09:05.020Z,1003.72
2023-03-05T00:09:37.028Z,1003.72
2023-03-05T00:10:09.944Z,1003.72
2023-03-05T00:10:35.311Z,1003.72
2023-03-05T00:10:58.275Z,1003.72
2023-03-05T00:11:29.107Z,1003.72
2023-03-05T00:12:01.114Z,1003.72
2023-03-05T00:12:33.392Z,1003.72
2023-03-05T00:13:04.987Z,1003.72
2023-03-05T00:13:36.990Z,1003.72
2023-03-05T00:14:09.039Z,1003.72
2023-03-05T00:14:35.506Z,1003.83
2023-03-05T00:14:57.049Z,1003.83
2023-03-05T00:15:29.850Z,1003.83
2023-03-05T00:16:03.242Z,1003.83
2023-03-05T00:16:33.364Z,1003.83
2023-03-05T00:17:05.065Z,1003.52
2023-03-05T00:17:37.971Z,1003.52
2023-03-05T00:18:09.081Z,1003.62
2023-03-05T00:18:35.306Z,1003.72
2023-03-05T00:18:57.024Z,1003.72
2023-03-05T00:19:29.048Z,1003.72
2023-03-05T00:20:03.545Z,1003.62
2023-03-05T00:20:33.522Z,1003.62
2023-03-05T00:21:04.997Z,1003.62
2023-03-05T00:21:37.030Z,1003.62
2023-03-05T00:22:09.086Z,1003.72
2023-03-05T00:22:35.914Z,1003.62
2023-03-05T00:22:57.049Z,1003.62
2023-03-05T00:23:29.080Z,1003.62
2023-03-05T00:24:01.762Z,1003.62
2023-03-05T00:24:33.393Z,1003.62
2023-03-05T00:25:05.299Z,1003.42
2023-03-05T00:25:37.376Z,1003.42
2023-03-05T00:26:09.039Z,1003.72
2023-03-05T00:26:35.287Z,1003.52
2023-03-05T00:26:57.011Z,1003.52
2023-03-05T00:27:29.069Z,1003.52
2023-03-05T00:28:01.096Z,1003.62
2023-03-05T00:28:33.393Z,1003.62
2023-03-05T00:29:05.108Z,1003.42
2023-03-05T00:29:37.007Z,1003.42
2023-03-05T00:30:11.120Z,1003.42
2023-03-05T00:30:35.323Z,1003.72
2023-03-05T00:30:57.264Z,1003.72
2023-03-05T00:31:29.098Z,1003.72
2023-03-05T00:32:01.200Z,1003.52
2023-03-05T00:32:33.469Z,1003.52
2023-03-05T00:33:05.035Z,1003.52
2023-03-05T00:33:37.852Z,1003.52
2023-03-05T00:34:09.096Z,1003.72
2023-03-05T00:34:35.339Z,1003.62
2023-03-05T00:34:57.006Z,1003.62
2023-03-05T00:35:29.373Z,1003.62
2023-03-05T00:36:01.350Z,1003.62
2023-03-05T00:36:33.463Z,1003.62
2023-03-05T00:37:05.027Z,1003.62
2023-03-05T00:37:37.029Z,1003.62
2023-03-05T00:38:09.040Z,1003.42
2023-03-05T00:38:35.407Z,1003.72
2023-03-05T00:38:57.734Z,1003.72
2023-03-05T00:39:29.029Z,1003.72
2023-03-05T00:40:04.255Z,1003.52
2023-03-05T00:40:33.490Z,1003.52
2023-03-05T00:41:05.030Z,1003.42
2023-03-05T00:41:37.201Z,1003.42
2023-03-05T00:42:09.087Z,1003.52
2023-03-05T00:42:35.370Z,1003.42
2023-03-05T00:42:57.599Z,1003.42
2023-03-05T00:43:29.052Z,1003.42
2023-03-05T00:44:01.084Z,1003.52
2023-03-05T00:44:33.452Z,1003.52
2023-03-05T00:45:05.539Z,1003.42
2023-03-05T00:45:37.005Z,1003.42
2023-03-05T00:46:09.275Z,1003.52
2023-03-05T00:46:35.387Z,1003.52
2023-03-05T00:46:57.041Z,1003.52
2023-03-05T00:47:29.080Z,1003.52
2023-03-05T00:48:01.099Z,1003.32
2023-03-05T00:48:33.514Z,1003.32
2023-03-05T00:49:05.033Z,1003.52
2023-03-05T00:49:37.877Z,1003.52
2023-03-05T00:50:09.356Z,1003.52
2023-03-05T00:50:35.288Z,1003.42
2023-03-05T00:50:57.250Z,1003.42
2023-03-05T00:51:29.009Z,1003.42
2023-03-05T00:52:01.030Z,1003.52
2023-03-05T00:52:33.533Z,1003.52
2023-03-05T00:53:05.029Z,1003.42
2023-03-05T00:53:37.030Z,1003.42
2023-03-05T00:54:09.094Z,1003.52
2023-03-05T00:54:35.311Z,1003.42
2023-03-05T00:54:57.036Z,1003.42
2023-03-05T00:55:29.382Z,1003.42
2023-03-05T00:56:01.118Z,1003.32
2023-03-05T00:56:33.547Z,1003.32
2023-03-05T00:57:05.032Z,1003.32
2023-03-05T00:57:37.038Z,1003.32
2023-03-05T00:58:09.122Z,1003.22
2023-03-05T00:58:35.313Z,1003.32
2023-03-05T00:58:57.034Z,1003.32
2023-03-05T00:59:29.032Z,1003.32
2023-03-05T01:00:04.017Z,1003.22
2023-03-05T01:00:33.445Z,1003.22
2023-03-05T01:01:05.093Z,1003.32
2023-03-05T01:01:37.874Z,1003.32
2023-03-05T01:02:09.012Z,1003.32
2023-03-05T01:02:35.298Z,1003.22
2023-03-05T01:02:57.009Z,1003.22
2023-03-05T01:03:29.046Z,1003.22
2023-03-05T01:04:01.104Z,1003.22
2023-03-05T01:04:33.511Z,1003.22
2023-03-05T01:05:05.307Z,1003.32
2023-03-05T01:05:37.141Z,1003.32
2023-03-05T01:06:09.116Z,1003.11
2023-03-05T01:06:35.342Z,1003.22
2023-03-05T01:06:57.004Z,1003.22
2023-03-05T01:07:29.048Z,1003.22
2023-03-05T01:08:01.802Z,1003.22
2023-03-05T01:08:33.556Z,1003.22
2023-03-05T01:09:05.037Z,1003.32
2023-03-05T01:09:36.999Z,1003.32
2023-03-05T01:10:09.358Z,1003.22
2023-03-05T01:10:35.306Z,1003.22
2023-03-05T01:10:57.256Z,1003.22
2023-03-05T01:11:29.023Z,1003.22
2023-03-05T01:12:01.080Z,1003.52
2023-03-05T01:12:33.555Z,1003.52
2023-03-05T01:13:05.062Z,1003.32
2023-03-05T01:13:37.030Z,1003.32
2023-03-05T01:14:09.153Z,1003.32
2023-03-05T01:14:35.310Z,1003.32
2023-03-05T01:14:57.032Z,1003.32
2023-03-05T01:15:29.524Z,1003.32
2023-03-05T01:16:03.335Z,1003.22
2023-03-05T01:16:33.544Z,1003.22
2023-03-05T01:17:05.000Z,1003.22
2023-03-05T01:17:38.121Z,1003.22
2023-03-05T01:18:09.008Z,1003.22
2023-03-05T01:18:35.284Z,1003.22
2023-03-05T01:18:57.048Z,1003.22
2023-03-05T01:19:29.046Z,1003.22
2023-03-05T01:20:03.748Z,1003.32
2023-03-05T01:20:33.593Z,1003.32
2023-03-05T01:21:05.036Z,1003.11
2023-03-05T01:21:37.053Z,1003.11
2023-03-05T01:22:08.999Z,1003.22
2023-03-05T01:22:35.288Z,1003.22
2023-03-05T01:22:57.013Z,1003.22
2023-03-05T01:23:29.027Z,1003.22
2023-03-05T01:24:01.876Z,1003.32
2023-03-05T01:24:33.599Z,1003.32
2023-03-05T01:25:05.295Z,1003.42
2023-03-05T01:25:37.059Z,1003.42
2023-03-05T01:26:09.027Z,1003.32
2023-03-05T01:26:35.279Z,1003.22
2023-03-05T01:26:57.027Z,1003.22
2023-03-05T01:27:29.066Z,1003.22
2023-03-05T01:28:01.335Z,1003.22
2023-03-05T01:28:33.543Z,1003.22
2023-03-05T01:29:05.038Z,1003.11
2023-03-05T01:29:37.060Z,1003.11
2023-03-05T01:30:11.006Z,1003.22
2023-03-05T01:30:35.329Z,1003.11
2023-03-05T01:30:57.238Z,1003.11
2023-03-05T01:31:29.074Z,1003.11
2023-03-05T01:32:01.135Z,1003.01
2023-03-05T01:32:34.786Z,1003.01
2023-03-05T01:33:05.019Z,1003.01
2023-03-05T01:33:37.844Z,1003.01
2023-03-05T01:34:09.190Z,1003.32
2023-03-05T01:34:35.291Z,1002.91
2023-03-05T01:34:57.007Z,1002.91
2023-03-05T01:35:29.526Z,1002.91
2023-03-05T01:36:01.043Z,1003.01
2023-03-05T01:36:33.574Z,1003.01
2023-03-05T01:37:04.985Z,1003.01
2023-03-05T01:37:37.077Z,1003.01
2023-03-05T01:38:09.030Z,1003.01
2023-03-05T01:38:35.250Z,1002.91
2023-03-05T01:38:57.000Z,1002.91
2023-03-05T01:39:29.089Z,1002.91
2023-03-05T01:40:04.165Z,1003.01
2023-03-05T01:40:34.224Z,1003.01
2023-03-05T01:41:05.203Z,1002.91
2023-03-05T01:41:37.077Z,1002.91
2023-03-05T01:42:10.176Z,1003.01
2023-03-05T01:42:35.653Z,1003.11
2023-03-05T01:42:57.777Z,1003.11
2023-03-05T01:43:29.060Z,1003.11
2023-03-05T01:44:01.269Z,1002.91
2023-03-05T01:44:33.939Z,1002.91
2023-03-05T01:45:05.761Z,1003.01
2023-03-05T01:45:37.253Z,1003.01
2023-03-05T01:46:09.399Z,1002.91
2023-03-05T01:46:35.468Z,1002.91
2023-03-05T01:46:57.221Z,1002.91
2023-03-05T01:47:29.291Z,1002.91
2023-03-05T01:48:01.261Z,1003.01
2023-03-05T01:48:34.013Z,1003.01
2023-03-05T01:49:05.247Z,1002.91
2023-03-05T01:49:37.693Z,1002.91
2023-03-05T01:50:09.688Z,1002.91
2023-03-05T01:50:35.601Z,1002.71
2023-03-05T01:50:57.403Z,1002.71
2023-03-05T01:51:29.110Z,1002.71
2023-03-05T01:52:01.614Z,1002.91
2023-03-05T01:52:33.728Z,1002.91
2023-03-05T01:53:05.086Z,1003.01
2023-03-05T01:53:37.082Z,1003.01
2023-03-05T01:54:09.070Z,1003.01
2023-03-05T01:54:35.691Z,1002.81
2023-03-05T01:54:57.043Z,1002.81
2023-03-05T01:55:29.444Z,1002.81
2023-03-05T01:56:01.094Z,1002.81
2023-03-05T01:56:33.715Z,1002.81
2023-03-05T01:57:05.035Z,1003.01
2023-03-05T01:57:37.067Z,1003.01
2023-03-05T01:58:09.080Z,1002.81
2023-03-05T01:58:35.339Z,1003.01
2023-03-05T01:58:57.071Z,1003.01
2023-03-05T01:59:29.098Z,1003.01
2023-03-05T02:00:04.473Z,1002.91
2023-03-05T02:00:33.990Z,1002.91
2023-03-05T02:01:05.142Z,1002.81
2023-03-05T02:01:37.895Z,1002.81
2023-03-05T02:02:09.054Z,1002.91
2023-03-05T02:02:35.293Z,1002.71
2023-03-05T02:02:57.053Z,1002.71
2023-03-05T02:03:29.155Z,1002.71
2023-03-05T02:04:01.160Z,1002.91
2023-03-05T02:04:33.793Z,1002.91
2023-03-05T02:05:05.448Z,1002.91
2023-03-05T02:05:37.085Z,1002.91
2023-03-05T02:06:09.087Z,1002.91
2023-03-05T02:06:35.291Z,1002.91
2023-03-05T02:06:57.560Z,1002.91
2023-03-05T02:07:29.098Z,1002.91
2023-03-05T02:08:02.046Z,1002.91
2023-03-05T02:08:33.769Z,1002.91
2023-03-05T02:09:05.049Z,1002.71
2023-03-05T02:09:37.514Z,1002.71
2023-03-05T02:10:09.465Z,1002.91
2023-03-05T02:10:35.701Z,1002.71
2023-03-05T02:10:57.298Z,1002.71
2023-03-05T02:11:29.161Z,1002.71
2023-03-05T02:12:01.124Z,1002.81
2023-03-05T02:12:33.717Z,1002.81
2023-03-05T02:13:05.070Z,1002.71
2023-03-05T02:13:37.135Z,1002.71
2023-03-05T02:14:10.122Z,1003.01
2023-03-05T02:14:35.320Z,1002.71
2023-03-05T02:14:57.120Z,1002.71
2023-03-05T02:15:29.608Z,1002.71
2023-03-05T02:16:03.812Z,1002.81
2023-03-05T02:16:33.817Z,1002.81
2023-03-05T02:17:05.102Z,1002.81
2023-03-05T02:17:37.926Z,1002.81
2023-03-05T02:18:09.107Z,1002.54
2023-03-05T02:18:35.328Z,1002.64
2023-03-05T02:18:57.051Z,1002.64
2023-03-05T02:19:29.071Z,1002.64
2023-03-05T02:20:03.879Z,1002.81
2023-03-05T02:20:33.813Z,1002.81
2023-03-05T02:21:05.087Z,1002.81
2023-03-05T02:21:37.047Z,1002.81
2023-03-05T02:22:09.795Z,1002.81
2023-03-05T02:22:35.605Z,1002.64
2023-03-05T02:22:57.137Z,1002.64
2023-03-05T02:23:29.110Z,1002.64
2023-03-05T02:24:01.779Z,1002.71
2023-03-05T02:24:33.705Z,1002.71
2023-03-05T02:25:05.445Z,1002.71
2023-03-05T02:25:37.216Z,1002.71
2023-03-05T02:26:09.052Z,1002.64
2023-03-05T02:26:35.284Z,1002.64
2023-03-05T02:26:57.572Z,1002.64
2023-03-05T02:27:29.048Z,1002.64
2023-03-05T02:28:01.107Z,1002.71
2023-03-05T02:28:33.670Z,1002.71
2023-03-05T02:29:05.079Z,1002.64
2023-03-05T02:29:37.047Z,1002.64
2023-03-05T02:30:11.429Z,1002.54
2023-03-05T02:30:35.298Z,1002.71
2023-03-05T02:30:57.442Z,1002.71
2023-03-05T02:31:29.175Z,1002.71
2023-03-05T02:32:01.219Z,1002.54
2023-03-05T02:32:33.775Z,1002.54
2023-03-05T02:33:05.079Z,1002.64
2023-03-05T02:33:39.857Z,1002.64
2023-03-05T02:34:09.055Z,1002.64
2023-03-05T02:34:35.257Z,1002.64
2023-03-05T02:34:57.018Z,1002.64
2023-03-05T02:35:29.381Z,1002.64
2023-03-05T02:36:01.108Z,1002.64
2023-03-05T02:36:33.690Z,1002.64
2023-03-05T02:37:05.026Z,1002.64
2023-03-05T02:37:37.024Z,1002.64
2023-03-05T02:38:09.003Z,1002.64
2023-03-05T02:38:35.302Z,1002.71
2023-03-05T02:38:57.023Z,1002.71
2023-03-05T02:39:29.086Z,1002.71
2023-03-05T02:40:04.131Z,1002.54
2023-03-05T02:40:33.747Z,1002.54
2023-03-05T02:41:05.120Z,1002.44
2023-03-05T02:41:37.367Z,1002.44
2023-03-05T02:42:09.096Z,1002.71
2023-03-05T02:42:35.235Z,1002.64
2023-03-05T02:42:57.006Z,1002.64
2023-03-05T02:43:29.191Z,1002.64
2023-03-05T02:44:01.037Z,1002.54
2023-03-05T02:44:33.697Z,1002.54
2023-03-05T02:45:05.609Z,1002.54
2023-03-05T02:45:37.154Z,1002.54
2023-03-05T02:46:09.293Z,1002.64
2023-03-05T02:46:35.259Z,1002.44
2023-03-05T02:46:57.053Z,1002.44
2023-03-05T02:47:29.063Z,1002.44
2023-03-05T02:48:01.109Z,1002.64
2023-03-05T02:48:33.681Z,1002.64
2023-03-05T02:49:05.039Z,1002.44
2023-03-05T02:49:37.743Z,1002.44
2023-03-05T02:50:09.406Z,1002.44
2023-03-05T02:50:36.016Z,1002.54
2023-03-05T02:50:58.002Z,1002.54
2023-03-05T02:51:29.095Z,1002.54
2023-03-05T02:52:01.100Z,1002.54
2023-03-05T02:52:33.634Z,1002.54
2023-03-05T02:53:05.037Z,1002.23
2023-03-05T02:53:37.029Z,1002.23
2023-03-05T02:54:09.037Z,1002.44
2023-03-05T02:54:35.286Z,1002.44
2023-03-05T02:54:57.069Z,1002.44
2023-03-05T02:55:29.371Z,1002.44
2023-03-05T02:56:01.887Z,1002.44
2023-03-05T02:56:33.692Z,1002.44
2023-03-05T02:57:05.085Z,1002.44
2023-03-05T02:57:37.150Z,1002.44
2023-03-05T02:58:09.023Z,1002.34
2023-03-05T02:58:35.245Z,1002.23
2023-03-05T02:58:57.040Z,1002.23
2023-03-05T02:59:29.094Z,1002.23
2023-03-05T03:00:03.887Z,1002.34
2023-03-05T03:00:33.751Z,1002.34
2023-03-05T03:01:05.141Z,1002.44
2023-03-05T03:01:37.412Z,1002.44
2023-03-05T03:02:09.044Z,1002.44
2023-03-05T03:02:35.281Z,1002.34
2023-03-05T03:02:57.142Z,1002.34
2023-03-05T03:03:29.160Z,1002.34
2023-03-05T03:04:01.087Z,1002.34
2023-03-05T03:04:33.600Z,1002.34
2023-03-05T03:05:05.329Z,1002.23
2023-03-05T03:05:37.982Z,1002.23
2023-03-05T03:06:09.059Z,1002.34
2023-03-05T03:06:35.278Z,1002.13
2023-03-05T03:06:57.587Z,1002.13
2023-03-05T03:07:29.047Z,1002.13
2023-03-05T03:08:01.075Z,1002.44
2023-03-05T03:08:33.650Z,1002.44
2023-03-05T03:09:05.046Z,1002.44
2023-03-05T03:09:37.052Z,1002.44
2023-03-05T03:10:09.368Z,1002.44
2023-03-05T03:10:35.282Z,1002.23
2023-03-05T03:10:57.274Z,1002.23
2023-03-05T03:11:29.070Z,1002.23
2023-03-05T03:12:02.249Z,1002.23
2023-03-05T03:12:33.731Z,1002.23
2023-03-05T03:13:05.046Z,1002.13
2023-03-05T03:13:37.071Z,1002.13
2023-03-05T03:14:09.175Z,1002.34
2023-03-05T03:14:35.239Z,1002.34
2023-03-05T03:14:57.026Z,1002.34
2023-03-05T03:15:29.561Z,1002.34
2023-03-05T03:16:02.582Z,1002.23
2023-03-05T03:16:33.689Z,1002.23
2023-03-05T03:17:05.124Z,1002.13
2023-03-05T03:17:37.070Z,1002.13
2023-03-05T03:18:09.077Z,1002.34
2023-03-05T03:18:35.265Z,1002.23
2023-03-05T03:18:57.071Z,1002.23
2023-03-05T03:19:29.054Z,1002.23
2023-03-05T03:20:03.446Z,1002.34
2023-03-05T03:20:33.694Z,1002.34
2023-03-05T03:21:05.084Z,1002.44
2023-03-05T03:21:37.824Z,1002.44
2023-03-05T03:22:09.086Z,1002.34
2023-03-05T03:22:35.361Z,1002.34
2023-03-05T03:22:57.063Z,1002.34
2023-03-05T03:23:29.066Z,1002.34
2023-03-05T03:24:01.075Z,1002.03
2023-03-05T03:24:33.659Z,1002.03
2023-03-05T03:25:05.357Z,1002.03
2023-03-05T03:25:37.036Z,1002.03
2023-03-05T03:26:09.050Z,1002.23
2023-03-05T03:26:35.252Z,1002.23
2023-03-05T03:26:57.065Z,1002.23
2023-03-05T03:27:29.116Z,1002.23
2023-03-05T03:28:01.891Z,1002.13
2023-03-05T03:28:33.924Z,1002.13
2023-03-05T03:29:05.104Z,1002.03
2023-03-05T03:29:37.083Z,1002.03
2023-03-05T03:30:11.457Z,1002.23
2023-03-05T03:30:35.370Z,1002.23
2023-03-05T03:30:57.363Z,1002.23
2023-03-05T03:31:29.051Z,1002.23
2023-03-05T03:32:01.143Z,1002.03
2023-03-05T03:32:33.697Z,1002.03
2023-03-05T03:33:05.068Z,1002.13
2023-03-05T03:33:37.018Z,1002.13
2023-03-05T03:34:09.039Z,1002.03
2023-03-05T03:34:35.232Z,1001.93
2023-03-05T03:34:57.066Z,1001.93
2023-03-05T03:35:29.462Z,1001.93
2023-03-05T03:36:01.181Z,1002.03
2023-03-05T03:36:33.662Z,1002.03
2023-03-05T03:37:05.080Z,1002.03
2023-03-05T03:37:37.885Z,1002.03
2023-03-05T03:38:09.140Z,1001.93
2023-03-05T03:38:35.272Z,1001.93
2023-03-05T03:38:57.077Z,1001.93
2023-03-05T03:39:29.070Z,1001.93
2023-03-05T03:40:03.554Z,1002.13
2023-03-05T03:40:33.658Z,1002.13
2023-03-05T03:41:05.078Z,1001.83
2023-03-05T03:41:37.055Z,1001.83
2023-03-05T03:42:09.076Z,1001.93
2023-03-05T03:42:35.264Z,1001.93
2023-03-05T03:42:57.069Z,1001.93
2023-03-05T03:43:29.173Z,1001.93
2023-03-05T03:44:01.930Z,1002.13
2023-03-05T03:44:33.723Z,1002.13
2023-03-05T03:45:05.593Z,1002.13
2023-03-05T03:45:37.100Z,1002.13
2023-03-05T03:46:09.418Z,1002.03
2023-03-05T03:46:35.340Z,1002.03
2023-03-05T03:46:57.097Z,1002.03
2023-03-05T03:47:29.037Z,1002.03
2023-03-05T03:48:01.092Z,1002.03
2023-03-05T03:48:33.661Z,1002.03
2023-03-05T03:49:05.077Z,1001.93
2023-03-05T03:49:37.068Z,1001.93
2023-03-05T03:50:09.406Z,1002.03
2023-03-05T03:50:35.258Z,1002.03
2023-03-05T03:50:57.898Z,1002.03
2023-03-05T03:51:29.042Z,1002.03
2023-03-05T03:52:01.115Z,1001.73
2023-03-05T03:52:33.731Z,1001.73
2023-03-05T03:53:05.083Z,1002.03
2023-03-05T03:53:38.083Z,1002.03
2023-03-05T03:54:09.139Z,1001.93
2023-03-05T03:54:35.574Z,1001.93
2023-03-05T03:54:57.086Z,1001.93
2023-03-05T03:55:29.379Z,1001.93
2023-03-05T03:56:01.119Z,1002.03
2023-03-05T03:56:33.728Z,1002.03
2023-03-05T03:57:05.031Z,1002.03
2023-03-05T03:57:37.174Z,1002.03
2023-03-05T03:58:09.092Z,1001.93
2023-03-05T03:58:35.274Z,1001.83
2023-03-05T03:58:57.087Z,1001.83
2023-03-05T03:59:29.099Z,1001.83
2023-03-05T04:00:04.490Z,1002.13
2023-03-05T04:00:33.843Z,1002.13
2023-03-05T04:01:05.080Z,1001.83
2023-03-05T04:01:37.081Z,1001.83
2023-03-05T04:02:09.087Z,1002.13
2023-03-05T04:02:35.259Z,1001.93
2023-03-05T04:02:57.074Z,1001.93
2023-03-05T04:03:29.072Z,1001.93
2023-03-05T04:04:01.457Z,1001.83
2023-03-05T04:04:33.778Z,1001.83
2023-03-05T04:05:05.388Z,1001.83
2023-03-05T04:05:37.068Z,1001.83
2023-03-05T04:06:09.046Z,1001.93
2023-03-05T04:06:35.343Z,1001.83
2023-03-05T04:06:57.119Z,1001.83
2023-03-05T04:07:29.117Z,1001.83
2023-03-05T04:08:01.139Z,1001.93
2023-03-05T04:08:33.709Z,1001.93
2023-03-05T04:09:05.077Z,1001.83
2023-03-05T04:09:37.803Z,1001.83
2023-03-05T04:10:09.465Z,1001.93
2023-03-05T04:10:35.244Z,1001.83
2023-03-05T04:10:57.331Z,1001.83
2023-03-05T04:11:29.065Z,1001.83
2023-03-05T04:12:01.061Z,1001.83
2023-03-05T04:12:33.675Z,1001.83
2023-03-05T04:13:05.050Z,1001.83
2023-03-05T04:13:37.031Z,1001.83
2023-03-05T04:14:09.072Z,1001.93
2023-03-05T04:14:35.370Z,1001.83
2023-03-05T04:14:58.010Z,1001.83
2023-03-05T04:15:29.639Z,1001.83
2023-03-05T04:16:04.013Z,1001.62
2023-03-05T04:16:33.785Z,1001.62
2023-03-05T04:17:05.074Z,1001.73
2023-03-05T04:17:37.107Z,1001.73
2023-03-05T04:18:09.096Z,1001.83
2023-03-05T04:18:35.375Z,1001.93
2023-03-05T04:18:57.123Z,1001.93
2023-03-05T04:19:29.085Z,1001.93
2023-03-05T04:20:03.653Z,1001.73
2023-03-05T04:20:34.052Z,1001.73
2023-03-05T04:21:05.107Z,1001.62
2023-03-05T04:21:37.082Z,1001.62
2023-03-05T04:22:09.614Z,1001.62
2023-03-05T04:22:35.280Z,1001.83
2023-03-05T04:22:57.156Z,1001.83
2023-03-05T04:23:29.090Z,1001.83
2023-03-05T04:24:01.181Z,1001.73
2023-03-05T04:24:33.773Z,1001.73
2023-03-05T04:25:05.464Z,1001.62
2023-03-05T04:25:37.998Z,1001.62
2023-03-05T04:26:09.156Z,1001.83
2023-03-05T04:26:35.269Z,1001.73
2023-03-05T04:26:57.091Z,1001.73
2023-03-05T04:27:29.099Z,1001.73
2023-03-05T04:28:01.145Z,1001.83
2023-03-05T04:28:33.776Z,1001.83
2023-03-05T04:29:05.095Z,1001.73
2023-03-05T04:29:37.116Z,1001.73
2023-03-05T04:30:11.070Z,1001.83
2023-03-05T04:30:35.279Z,1001.73
2023-03-05T04:30:58.011Z,1001.73
2023-03-05T04:31:29.194Z,1001.73
2023-03-05T04:32:02.806Z,1001.62
2023-03-05T04:32:33.940Z,1001.62
2023-03-05T04:33:05.115Z,1001.83
2023-03-05T04:33:37.104Z,1001.83
2023-03-05T04:34:09.473Z,1001.62
2023-03-05T04:34:35.279Z,1001.52
2023-03-05T04:34:57.206Z,1001.52
2023-03-05T04:35:29.644Z,1001.52
2023-03-05T04:36:01.128Z,1001.73
2023-03-05T04:36:33.767Z,1001.73
2023-03-05T04:37:05.094Z,1001.73
2023-03-05T04:37:37.094Z,1001.73
2023-03-05T04:38:09.075Z,1001.42
2023-03-05T04:38:35.261Z,1001.73
2023-03-05T04:38:57.098Z,1001.73
2023-03-05T04:39:29.142Z,1001.73
2023-03-05T04:40:03.789Z,1001.62
2023-03-05T04:40:33.869Z,1001.62
2023-03-05T04:41:05.120Z,1001.62
2023-03-05T04:41:38.056Z,1001.62
2023-03-05T04:42:09.138Z,1001.73
2023-03-05T04:42:35.264Z,1001.83
2023-03-05T04:42:57.072Z,1001.83
2023-03-05T04:43:29.125Z,1001.83
2023-03-05T04:44:01.091Z,1001.73
2023-03-05T04:44:33.740Z,1001.73
2023-03-05T04:45:05.631Z,1001.73
2023-03-05T04:45:37.406Z,1001.73
2023-03-05T04:46:09.279Z,1001.62
2023-03-05T04:46:35.370Z,1001.62
2023-03-05T04:46:57.137Z,1001.62
2023-03-05T04:47:29.141Z,1001.62
2023-03-05T04:48:02.026Z,1001.52
2023-03-05T04:48:34.059Z,1001.52
2023-03-05T04:49:05.071Z,1001.62
2023-03-05T04:49:37.118Z,1001.62
2023-03-05T04:50:09.940Z,1001.52
2023-03-05T04:50:35.235Z,1001.62
2023-03-05T04:50:57.326Z,1001.62
2023-03-05T04:51:29.109Z,1001.62
2023-03-05T04:52:01.126Z,1001.73
2023-03-05T04:52:33.715Z,1001.73
2023-03-05T04:53:05.085Z,1001.73
2023-03-05T04:53:37.071Z,1001.73
2023-03-05T04:54:09.107Z,1001.62
2023-03-05T04:54:35.257Z,1001.73
2023-03-05T04:54:57.152Z,1001.73
2023-03-05T04:55:29.487Z,1001.73
2023-03-05T04:56:01.545Z,1001.52
2023-03-05T04:56:34.055Z,1001.52
2023-03-05T04:57:05.154Z,1001.83
2023-03-05T04:57:37.898Z,1001.83
2023-03-05T04:58:09.115Z,1001.62
2023-03-05T04:58:35.246Z,1001.62
2023-03-05T04:58:57.104Z,1001.62
2023-03-05T04:59:29.090Z,1001.62
2023-03-05T05:00:04.008Z,1001.73
2023-03-05T05:00:33.829Z,1001.73
2023-03-05T05:01:05.132Z,1001.83
2023-03-05T05:01:37.122Z,1001.83
2023-03-05T05:02:08.893Z,1001.42
2023-03-05T05:02:34.884Z,1001.73
2023-03-05T05:02:56.806Z,1001.73
2023-03-05T05:03:28.678Z,1001.73
2023-03-05T05:04:01.410Z,1001.62
2023-03-05T05:04:32.768Z,1001.62
2023-03-05T05:05:05.199Z,1001.83
2023-03-05T05:05:36.674Z,1001.83
2023-03-05T05:06:08.830Z,1001.52
2023-03-05T05:06:36.637Z,1001.73
2023-03-05T05:06:57.292Z,1001.73
2023-03-05T05:07:29.246Z,1001.73
2023-03-05T05:08:01.155Z,1001.62
2023-03-05T05:08:33.101Z,1001.62
2023-03-05T05:09:05.105Z,1001.73
2023-03-05T05:09:37.119Z,1001.73
2023-03-05T05:10:09.750Z,1001.73
2023-03-05T05:10:35.249Z,1001.73
2023-03-05T05:10:58.034Z,1001.73
2023-03-05T05:11:29.174Z,1001.73
2023-03-05T05:12:01.152Z,1001.73
2023-03-05T05:12:33.159Z,1001.73
2023-03-05T05:13:05.219Z,1001.73
2023-03-05T05:13:37.946Z,1001.73
2023-03-05T05:14:09.212Z,1001.62
2023-03-05T05:14:35.644Z,1001.62
2023-03-05T05:14:57.100Z,1001.62
2023-03-05T05:15:30.235Z,1001.62
2023-03-05T05:16:02.878Z,1001.62
2023-03-05T05:16:33.634Z,1001.62
2023-03-05T05:17:05.120Z,1001.52
2023-03-05T05:17:37.134Z,1001.52
2023-03-05T05:18:09.168Z,1001.52
2023-03-05T05:18:35.256Z,1001.52
2023-03-05T05:18:57.115Z,1001.52
2023-03-05T05:19:29.303Z,1001.52
2023-03-05T05:20:06.373Z,1001.73
2023-03-05T05:20:33.178Z,1001.73
2023-03-05T05:21:05.109Z,1001.42
2023-03-05T05:21:37.143Z,1001.42
2023-03-05T05:22:09.191Z,1001.62
2023-03-05T05:22:35.259Z,1001.73
2023-03-05T05:22:57.098Z,1001.73
2023-03-05T05:23:29.195Z,1001.73
2023-03-05T05:24:01.151Z,1001.62
2023-03-05T05:24:33.113Z,1001.62
2023-03-05T05:25:05.432Z,1001.62
2023-03-05T05:25:37.111Z,1001.62
2023-03-05T05:26:09.169Z,1001.52
2023-03-05T05:26:35.235Z,1001.42
2023-03-05T05:26:57.562Z,1001.42
2023-03-05T05:27:29.114Z,1001.42
2023-03-05T05:28:01.191Z,1001.42
2023-03-05T05:28:33.158Z,1001.42
2023-03-05T05:29:05.148Z,1001.52
2023-03-05T05:29:37.842Z,1001.52
2023-03-05T05:30:11.320Z,1001.62
2023-03-05T05:30:35.389Z,1001.42
2023-03-05T05:30:57.763Z,1001.42
2023-03-05T05:31:29.187Z,1001.42
2023-03-05T05:32:01.196Z,1001.52
2023-03-05T05:32:33.169Z,1001.52
2023-03-05T05:33:05.123Z,1001.62
2023-03-05T05:33:37.145Z,1001.62
2023-03-05T05:34:09.167Z,1001.52
2023-03-05T05:34:35.233Z,1001.32
2023-03-05T05:34:57.153Z,1001.32
2023-03-05T05:35:29.767Z,1001.32
2023-03-05T05:36:01.972Z,1001.52
2023-03-05T05:36:33.168Z,1001.52
2023-03-05T05:37:05.156Z,1001.62
2023-03-05T05:37:37.468Z,1001.62
2023-03-05T05:38:09.185Z,1001.32
2023-03-05T05:38:35.232Z,1001.42
2023-03-05T05:38:57.123Z,1001.42
2023-03-05T05:39:29.141Z,1001.42
2023-03-05T05:40:03.098Z,1001.52
2023-03-05T05:40:33.178Z,1001.52
2023-03-05T05:41:05.097Z,1001.52
2023-03-05T05:41:37.145Z,1001.52
2023-03-05T05:42:09.218Z,1001.62
2023-03-05T05:42:35.247Z,1001.62
2023-03-05T05:42:57.127Z,1001.62
2023-03-05T05:43:29.200Z,1001.62
2023-03-05T05:44:01.171Z,1001.52
2023-03-05T05:44:33.139Z,1001.52
2023-03-05T05:45:06.018Z,1001.52
2023-03-05T05:45:38.317Z,1001.52
2023-03-05T05:46:09.525Z,1001.42
2023-03-05T05:46:35.294Z,1001.62
2023-03-05T05:46:57.125Z,1001.62
2023-03-05T05:47:29.183Z,1001.62
2023-03-05T05:48:01.440Z,1001.62
2023-03-05T05:48:33.161Z,1001.62
2023-03-05T05:49:05.112Z,1001.62
2023-03-05T05:49:37.154Z,1001.62
2023-03-05T05:50:09.585Z,1001.52
2023-03-05T05:50:35.394Z,1001.52
2023-03-05T05:50:57.402Z,1001.52
2023-03-05T05:51:29.170Z,1001.52
2023-03-05T05:52:02.023Z,1001.32
2023-03-05T05:52:33.250Z,1001.32
2023-03-05T05:53:05.133Z,1001.52
2023-03-05T05:53:37.173Z,1001.52
2023-03-05T05:54:09.908Z,1001.42
2023-03-05T05:54:35.252Z,1001.73
2023-03-05T05:54:58.022Z,1001.73
2023-03-05T05:55:29.519Z,1001.73
2023-03-05T05:56:01.165Z,1001.52
2023-03-05T05:56:33.153Z,1001.52
2023-03-05T05:57:05.143Z,1001.42
2023-03-05T05:57:37.175Z,1001.42
2023-03-05T05:58:09.179Z,1001.52
2023-03-05T05:58:35.252Z,1001.52
2023-03-05T05:58:57.159Z,1001.52
2023-03-05T05:59:29.194Z,1001.52
2023-03-05T06:00:03.496Z,1001.62
2023-03-05T06:00:33.185Z,1001.62
2023-03-05T06:01:05.184Z,1001.62
2023-03-05T06:01:39.765Z,1001.62
2023-03-05T06:02:09.322Z,1001.42
2023-03-05T06:02:35.247Z,1001.42